Aviation Digital Data Service (ADDS)

Output produced by METARs form (1911 UTC 25 June 2017)
found at http://www.aviationweather.gov/adds/metars/
 
LSMA 251850Z AUTO 00000KT 9999NDV SCT071 21/16 Q1016 RMK
LSZB 251850Z VRB03KT CAVOK 23/12 Q1016 NOSIG
TAF LSZB 251425Z 2515/2524 28007KT 9999 SCT060 
     BECMG 2516/2519 CAVOK 
     BECMG 2517/2520 VRB03KT
       
LSMD 251850Z AUTO 33009KT 300V010 9999NDV BKN110 24/12 Q1016 RMK
LSME 251850Z AUTO 35004KT 310V030 9999NDV BKN069 24/12 Q1016 RMK
LSGG 251850Z 36003KT 310V050 CAVOK 25/12 Q1016 NOSIG
TAF LSGG 251725Z 2518/2624 VRB03KT 9999 SCT060 TX29/2615Z TN17/2605Z 
     BECMG 2518/2521 CAVOK 
     BECMG 2612/2615 9999 SHRA FEW050TCU SCT100 BKN240 
     PROB40 
     TEMPO 2615/2621 TSRA SCT030CB
       
LSGC 251850Z AUTO 29003KT CAVOK 17/10 Q1019
TAF LSGC 251425Z 2515/2524 27008KT 9999 BKN050
       
LSZA 251850Z 01004KT 340V040 9999 FEW100 25/21 Q1011 NOSIG
TAF LSZA 251425Z 2515/2524 20004KT 9999 FEW050 
     BECMG 2517/2520 CAVOK 
     PROB30 
     TEMPO 2520/2524 35010KT
       
LSMM 251850Z AUTO VRB02KT 9999NDV FEW064 SCT076 20/17 Q1017 RMK
LSMP 251850Z AUTO 30004KT 270V330 9999NDV NCD 24/13 Q1016 RMK
LSZS 251850Z AUTO VRB02KT 9999 BKN070 12/08 Q1021
TAF LSZS 251425Z 2515/2524 03012KT 9999 BKN040 TX17/2514Z 
     PROB30 2515/2519 SCT040TCU 
     BECMG 2521/2524 VRB03KT
       
LSGS 251850Z AUTO 27008KT 240V300 CAVOK 24/11 Q1015
TAF LSGS 251425Z 2515/2524 25015KT 9999 FEW080 
     BECMG 2518/2520 VRB03KT
       
LSZR 251850Z AUTO 23002KT 9999 NSC 23/14 Q1015
TAF LSZR 251425Z 2515/2524 19006KT 9999 SCT085 
     PROB40 2521/2524 CAVOK
       
LSZH 251850Z 28005KT CAVOK 22/12 Q1016 NOSIG
TAF LSZH 251725Z 2518/2624 29011KT 9999 FEW060 TX30/2615Z TN13/2604Z 
     BECMG 2518/2520 VRB03KT 
     BECMG 2519/2522 CAVOK 
     BECMG 2613/2616 06007KT 
     BECMG 2618/2621 VRB03KT 
     PROB30 
     TEMPO 2620/2624 24010KT SHRA SCT045TCU BKN080